createdAt,value
2023-03-11T00:01:40.596Z,6.56
2023-03-11T00:04:07.385Z,5.90
2023-03-11T00:06:35.037Z,5.91
2023-03-11T00:09:02.010Z,5.93
2023-03-11T00:11:28.593Z,6.72
2023-03-11T00:13:56.705Z,6.53
2023-03-11T00:16:23.795Z,6.35
2023-03-11T00:18:50.309Z,6.52
2023-03-11T00:21:16.829Z,6.17
2023-03-11T00:23:45.718Z,6.55
2023-03-11T00:26:12.448Z,6.45
2023-03-11T00:28:38.914Z,6.76
2023-03-11T00:31:05.709Z,6.56
2023-03-11T00:33:32.228Z,5.89
2023-03-11T00:36:00.113Z,6.30
2023-03-11T00:38:26.698Z,6.10
2023-03-11T00:40:53.498Z,5.70
2023-03-11T00:43:20.231Z,5.93
2023-03-11T00:45:46.933Z,6.12
2023-03-11T00:48:13.435Z,5.71
2023-03-11T00:50:39.900Z,5.84
2023-03-11T00:53:06.336Z,5.57
2023-03-11T00:55:32.835Z,5.97
2023-03-11T00:57:59.363Z,6.03
2023-03-11T01:00:25.844Z,6.27
2023-03-11T01:02:52.465Z,5.70
2023-03-11T01:05:19.079Z,5.89
2023-03-11T01:07:45.681Z,6.08
2023-03-11T01:10:12.354Z,6.11
2023-03-11T01:12:38.907Z,6.11
2023-03-11T01:15:07.948Z,5.70
2023-03-11T01:17:37.298Z,5.97
2023-03-11T01:20:03.777Z,5.70
2023-03-11T01:22:30.192Z,5.94
2023-03-11T01:24:56.626Z,5.99
2023-03-11T01:27:23.336Z,6.03
2023-03-11T01:29:50.528Z,6.05
2023-03-11T01:32:17.095Z,5.91
2023-03-11T01:34:43.659Z,5.67
2023-03-11T01:37:10.631Z,5.96
2023-03-11T01:39:37.107Z,6.04
2023-03-11T01:42:03.541Z,4.90
2023-03-11T01:44:30.141Z,5.00
2023-03-11T01:46:56.807Z,5.04
2023-03-11T01:49:23.543Z,4.94
2023-03-11T01:51:50.050Z,5.15
2023-03-11T01:54:16.496Z,5.31
2023-03-11T01:56:43.117Z,5.07
2023-03-11T01:59:09.507Z,4.25
2023-03-11T02:01:38.057Z,4.06
2023-03-11T02:04:04.620Z,3.74
2023-03-11T02:06:31.106Z,3.38
2023-03-11T02:08:57.564Z,4.17
2023-03-11T02:11:24.030Z,4.09
2023-03-11T02:13:50.462Z,4.01
2023-03-11T02:16:17.038Z,3.85
2023-03-11T02:18:43.830Z,3.82
2023-03-11T02:21:10.465Z,3.80
2023-03-11T02:23:37.502Z,4.03
2023-03-11T02:26:04.009Z,4.18
2023-03-11T02:28:30.622Z,4.07
2023-03-11T02:30:57.057Z,3.86
2023-03-11T02:33:23.937Z,4.19
2023-03-11T02:35:50.371Z,4.35
2023-03-11T02:38:17.089Z,3.84
2023-03-11T02:40:43.497Z,3.74
2023-03-11T02:43:09.972Z,3.56
2023-03-11T02:45:36.463Z,3.83
2023-03-11T02:48:02.961Z,3.78
2023-03-11T02:50:29.572Z,3.43
2023-03-11T02:52:56.039Z,3.75
2023-03-11T02:55:22.606Z,3.67
2023-03-11T02:57:49.272Z,3.51
2023-03-11T03:00:17.800Z,2.93
2023-03-11T03:02:44.245Z,3.25
2023-03-11T03:05:12.537Z,3.51
2023-03-11T03:07:39.076Z,3.68
2023-03-11T03:10:05.463Z,3.42
2023-03-11T03:12:31.923Z,3.98
2023-03-11T03:14:58.395Z,3.93
2023-03-11T03:17:24.946Z,3.94
2023-03-11T03:19:51.606Z,3.57
2023-03-11T03:22:18.073Z,3.96
2023-03-11T03:24:44.547Z,4.02
2023-03-11T03:27:11.042Z,3.50
2023-03-11T03:29:37.480Z,3.72
2023-03-11T03:32:04.045Z,3.28
2023-03-11T03:34:30.737Z,3.32
2023-03-11T03:36:57.381Z,3.53
2023-03-11T03:39:24.793Z,3.81
2023-03-11T03:41:52.893Z,3.68
2023-03-11T03:44:19.440Z,4.13
2023-03-11T03:46:45.897Z,3.74
2023-03-11T03:49:12.338Z,3.98
2023-03-11T03:51:38.859Z,2.64
2023-03-11T03:54:05.293Z,2.59
2023-03-11T03:56:31.831Z,2.91
2023-03-11T03:58:58.251Z,3.50
2023-03-11T04:01:24.689Z,3.38
2023-03-11T04:03:51.246Z,2.09
2023-03-11T04:06:17.776Z,2.66
2023-03-11T04:08:44.255Z,2.69
2023-03-11T04:11:10.659Z,2.72
2023-03-11T04:13:37.233Z,2.46
2023-03-11T04:16:03.918Z,2.49
2023-03-11T04:18:30.357Z,2.95
2023-03-11T04:20:56.866Z,3.37
2023-03-11T04:23:23.942Z,3.40
2023-03-11T04:25:50.292Z,2.73
2023-03-11T04:28:16.733Z,3.01
2023-03-11T04:30:43.444Z,3.39
2023-03-11T04:33:09.977Z,3.33
2023-03-11T04:35:36.523Z,3.02
2023-03-11T04:38:03.086Z,2.39
2023-03-11T04:40:29.704Z,2.51
2023-03-11T04:42:56.185Z,2.70
2023-03-11T04:45:22.617Z,2.61
2023-03-11T04:47:49.041Z,2.50
2023-03-11T04:50:15.510Z,2.43
2023-03-11T04:52:41.990Z,2.01
2023-03-11T04:55:08.544Z,1.64
2023-03-11T04:57:34.987Z,1.41
2023-03-11T05:00:01.635Z,0.86
2023-03-11T05:02:28.152Z,1.57
2023-03-11T05:04:54.793Z,1.91
2023-03-11T05:07:21.321Z,2.16
2023-03-11T05:09:47.895Z,1.62
2023-03-11T05:12:14.492Z,2.14
2023-03-11T05:14:41.103Z,1.58
2023-03-11T05:17:07.531Z,1.42
2023-03-11T05:19:34.434Z,1.69
2023-03-11T05:22:00.856Z,1.72
2023-03-11T05:24:27.484Z,2.07
2023-03-11T05:26:54.221Z,1.74
2023-03-11T05:29:20.753Z,1.69
2023-03-11T05:31:47.778Z,1.96
2023-03-11T05:34:14.235Z,1.91
2023-03-11T05:36:41.012Z,1.66
2023-03-11T05:39:07.439Z,1.57
2023-03-11T05:41:34.048Z,1.13
2023-03-11T05:44:00.480Z,1.11
2023-03-11T05:46:27.094Z,1.08
2023-03-11T05:48:53.959Z,0.86
2023-03-11T05:51:20.397Z,1.01
2023-03-11T05:53:46.813Z,1.28
2023-03-11T05:56:13.491Z,1.14
2023-03-11T05:58:39.933Z,0.94
2023-03-11T06:01:06.401Z,0.89
2023-03-11T06:03:33.407Z,1.06
2023-03-11T06:05:59.829Z,1.14
2023-03-11T06:08:26.297Z,0.91
2023-03-11T06:10:52.711Z,1.29
2023-03-11T06:13:19.171Z,1.31
2023-03-11T06:15:45.671Z,1.26
2023-03-11T06:18:12.109Z,0.83
2023-03-11T06:20:38.571Z,0.65
2023-03-11T06:23:04.996Z,0.76
2023-03-11T06:25:31.533Z,1.05
2023-03-11T06:27:58.065Z,1.35
2023-03-11T06:30:24.526Z,1.36
2023-03-11T06:32:51.036Z,1.13
2023-03-11T06:35:17.627Z,1.26
2023-03-11T06:37:44.148Z,0.63
2023-03-11T06:40:10.630Z,1.24
2023-03-11T06:42:37.065Z,1.37
2023-03-11T06:45:03.541Z,1.02
2023-03-11T06:47:30.126Z,0.81
2023-03-11T06:49:56.631Z,1.11
2023-03-11T06:52:23.071Z,0.86
2023-03-11T06:54:49.560Z,0.72
2023-03-11T06:57:17.178Z,0.80
2023-03-11T06:59:43.822Z,0.13
2023-03-11T07:02:10.300Z,1.09
2023-03-11T07:04:36.920Z,0.92
2023-03-11T07:07:03.326Z,1.12
2023-03-11T07:09:29.751Z,0.91
2023-03-11T07:11:56.242Z,0.78
2023-03-11T07:14:23.144Z,0.72
2023-03-11T07:16:49.690Z,0.83
2023-03-11T07:19:16.510Z,0.94
2023-03-11T07:21:43.175Z,0.75
2023-03-11T07:24:09.551Z,1.04
2023-03-11T07:26:36.011Z,0.83
2023-03-11T07:29:02.444Z,1.21
2023-03-11T07:31:28.894Z,0.59
2023-03-11T07:33:55.415Z,0.79
2023-03-11T07:36:22.048Z,1.44
2023-03-11T07:38:48.500Z,1.66
2023-03-11T07:41:14.945Z,1.45
2023-03-11T07:43:41.486Z,1.44
2023-03-11T07:46:08.239Z,1.01
2023-03-11T07:48:37.071Z,1.47
2023-03-11T07:51:03.567Z,1.44
2023-03-11T07:53:30.203Z,1.83
2023-03-11T07:55:56.577Z,1.69
2023-03-11T07:58:23.052Z,1.69
2023-03-11T08:00:49.597Z,1.59
2023-03-11T08:03:16.101Z,2.05
2023-03-11T08:05:42.568Z,2.49
2023-03-11T08:08:09.956Z,2.43
2023-03-11T08:10:36.384Z,2.73
2023-03-11T08:13:02.845Z,2.20
2023-03-11T08:15:30.484Z,2.22
2023-03-11T08:17:56.966Z,2.60
2023-03-11T08:20:23.646Z,2.64
2023-03-11T08:22:58.144Z,1.97
2023-03-11T08:25:25.118Z,1.80
2023-03-11T08:27:51.547Z,1.98
2023-03-11T08:30:18.041Z,1.32
2023-03-11T08:32:44.509Z,2.17
2023-03-11T08:35:10.989Z,2.43
2023-03-11T08:37:37.438Z,2.46
2023-03-11T08:40:03.927Z,2.69
2023-03-11T08:42:30.341Z,2.06
2023-03-11T08:44:57.037Z,3.07
2023-03-11T08:47:23.673Z,3.06
2023-03-11T08:49:51.002Z,2.69
2023-03-11T08:52:17.501Z,2.53
2023-03-11T08:54:44.243Z,2.35
2023-03-11T08:57:10.874Z,2.62
2023-03-11T08:59:37.294Z,2.09
2023-03-11T09:02:04.088Z,1.68
2023-03-11T09:04:30.586Z,1.57
2023-03-11T09:06:57.176Z,2.20
2023-03-11T09:09:23.673Z,2.20
2023-03-11T09:11:50.185Z,2.49
2023-03-11T09:14:17.141Z,3.01
2023-03-11T09:16:43.648Z,2.74
2023-03-11T09:19:10.131Z,2.38
2023-03-11T09:21:37.591Z,2.16
2023-03-11T09:24:04.045Z,2.08
2023-03-11T09:26:30.491Z,1.84
2023-03-11T09:28:57.224Z,2.13
2023-03-11T09:31:24.163Z,1.94
2023-03-11T09:33:50.628Z,2.48
2023-03-11T09:36:19.504Z,2.39
2023-03-11T09:38:46.569Z,1.88
2023-03-11T09:41:13.031Z,1.97
2023-03-11T09:43:39.463Z,1.21
2023-03-11T09:46:06.061Z,1.40
2023-03-11T09:48:32.534Z,1.05
2023-03-11T09:50:59.210Z,1.59
2023-03-11T09:53:25.872Z,1.72
2023-03-11T09:55:52.659Z,1.92
2023-03-11T09:58:19.142Z,1.59
2023-03-11T10:00:45.872Z,1.40
2023-03-11T10:03:12.302Z,1.90
2023-03-11T10:05:38.904Z,2.19
2023-03-11T10:08:05.588Z,1.77
2023-03-11T10:10:32.362Z,1.39
2023-03-11T10:12:58.734Z,1.30
2023-03-11T10:15:25.153Z,0.63
2023-03-11T10:17:51.584Z,0.17
2023-03-11T10:20:18.391Z,0.87
2023-03-11T10:22:44.793Z,0.70
2023-03-11T10:25:11.382Z,0.88
2023-03-11T10:27:39.372Z,1.71
2023-03-11T10:30:07.128Z,1.73
2023-03-11T10:32:34.097Z,2.54
2023-03-11T10:35:00.899Z,1.88
2023-03-11T10:37:38.889Z,2.46
2023-03-11T10:40:13.238Z,2.46
2023-03-11T10:42:39.769Z,2.49
2023-03-11T10:45:06.162Z,2.62
2023-03-11T10:47:32.965Z,2.44
2023-03-11T10:50:00.422Z,2.41
2023-03-11T10:52:27.621Z,2.12
2023-03-11T10:54:54.034Z,2.08
2023-03-11T10:57:20.552Z,1.97
2023-03-11T10:59:47.332Z,1.87
2023-03-11T11:02:14.326Z,1.53
2023-03-11T11:04:41.660Z,1.94
2023-03-11T11:07:10.000Z,2.36
2023-03-11T11:09:36.858Z,2.10
2023-03-11T11:12:03.617Z,2.86
2023-03-11T11:14:31.004Z,3.06
2023-03-11T11:16:57.909Z,2.95
2023-03-11T11:19:27.271Z,3.27
2023-03-11T11:21:54.297Z,2.64
2023-03-11T11:24:21.006Z,2.86
2023-03-11T11:26:47.565Z,2.54
2023-03-11T11:29:14.016Z,1.84
2023-03-11T11:31:40.477Z,2.55
2023-03-11T11:34:06.949Z,2.57
2023-03-11T11:36:33.544Z,2.01
2023-03-11T11:39:00.551Z,0.89
2023-03-11T11:41:28.224Z,1.22
2023-03-11T11:43:55.246Z,1.50
2023-03-11T11:46:22.165Z,0.74
2023-03-11T11:48:48.842Z,1.76
2023-03-11T11:51:16.408Z,1.36
2023-03-11T11:53:42.893Z,1.39
2023-03-11T11:56:10.338Z,2.16
2023-03-11T11:58:37.967Z,1.84
2023-03-11T12:01:07.734Z,2.09
2023-03-11T12:03:36.340Z,2.79
2023-03-11T12:06:02.976Z,2.17
2023-03-11T12:08:29.476Z,1.59
2023-03-11T12:10:56.106Z,1.32
2023-03-11T12:13:22.546Z,1.61
2023-03-11T12:15:49.332Z,2.02
2023-03-11T12:18:16.002Z,2.02
2023-03-11T12:20:42.433Z,2.57
2023-03-11T12:23:09.106Z,2.20
2023-03-11T12:25:35.587Z,1.76
2023-03-11T12:28:02.103Z,2.02
2023-03-11T12:30:28.860Z,1.72
2023-03-11T12:32:55.737Z,1.93
2023-03-11T12:35:22.718Z,2.02
2023-03-11T12:37:49.270Z,2.39
2023-03-11T12:40:15.926Z,2.41
2023-03-11T12:42:42.401Z,2.45
2023-03-11T12:45:09.067Z,2.95
2023-03-11T12:47:35.901Z,1.88
2023-03-11T12:50:02.655Z,2.15
2023-03-11T12:52:29.631Z,2.28
2023-03-11T12:54:56.427Z,2.85
2023-03-11T12:57:23.454Z,2.84
2023-03-11T12:59:50.086Z,2.84
2023-03-11T13:02:16.845Z,2.65
2023-03-11T13:04:43.509Z,2.92
2023-03-11T13:07:09.941Z,3.11
2023-03-11T13:09:36.550Z,3.09
2023-03-11T13:12:03.040Z,2.82
2023-03-11T13:14:29.734Z,2.81
2023-03-11T13:16:56.397Z,2.92
2023-03-11T13:19:22.922Z,2.50
2023-03-11T13:21:51.957Z,2.91
2023-03-11T13:24:18.577Z,2.93
2023-03-11T13:26:45.006Z,3.18
2023-03-11T13:29:11.704Z,2.14
2023-03-11T13:31:38.422Z,2.97
2023-03-11T13:34:05.430Z,3.37
2023-03-11T13:36:32.015Z,3.22
2023-03-11T13:38:58.571Z,2.63
2023-03-11T13:41:25.124Z,2.57
2023-03-11T13:43:51.559Z,2.92
2023-03-11T13:46:18.105Z,3.25
2023-03-11T13:48:44.900Z,2.51
2023-03-11T13:51:11.302Z,1.91
2023-03-11T13:53:37.849Z,1.51
2023-03-11T13:56:04.276Z,2.69
2023-03-11T13:58:31.812Z,1.69
2023-03-11T14:00:58.355Z,2.30
2023-03-11T14:03:25.483Z,1.01
2023-03-11T14:05:52.353Z,1.70
2023-03-11T14:08:20.250Z,2.06
2023-03-11T14:10:47.291Z,2.27
2023-03-11T14:13:13.819Z,2.77
2023-03-11T14:15:40.542Z,2.83
2023-03-11T14:18:07.265Z,2.67
2023-03-11T14:20:34.102Z,2.63
2023-03-11T14:23:00.534Z,2.21
2023-03-11T14:25:27.065Z,2.24
2023-03-11T14:27:53.916Z,1.81
2023-03-11T14:30:20.569Z,1.76
2023-03-11T14:32:47.106Z,2.79
2023-03-11T14:35:13.553Z,2.57
2023-03-11T14:37:40.276Z,2.77
2023-03-11T14:40:07.755Z,1.94
2023-03-11T14:42:34.346Z,1.57
2023-03-11T14:45:01.237Z,2.50
2023-03-11T14:47:27.985Z,3.02
2023-03-11T14:49:54.579Z,1.83
2023-03-11T14:52:21.341Z,1.08
2023-03-11T14:54:47.854Z,1.71
2023-03-11T14:57:14.731Z,1.25
2023-03-11T14:59:41.405Z,1.18
2023-03-11T15:02:07.927Z,1.26
2023-03-11T15:04:35.631Z,1.62
2023-03-11T15:07:02.437Z,1.85
2023-03-11T15:09:29.391Z,0.99
2023-03-11T15:11:56.050Z,1.59
2023-03-11T15:14:22.938Z,1.35
2023-03-11T15:16:49.550Z,1.03
2023-03-11T15:19:18.480Z,1.40
2023-03-11T15:21:44.932Z,0.87
2023-03-11T15:24:11.416Z,0.67
2023-03-11T15:26:37.916Z,1.01
2023-03-11T15:29:07.019Z,1.32
2023-03-11T15:31:33.828Z,0.63
2023-03-11T15:34:00.312Z,1.76
2023-03-11T15:36:29.747Z,1.89
2023-03-11T15:38:57.690Z,1.62
2023-03-11T15:41:24.274Z,1.08
2023-03-11T15:43:51.016Z,1.09
2023-03-11T15:46:20.443Z,1.95
2023-03-11T15:48:46.970Z,1.47
2023-03-11T15:51:14.202Z,1.94
2023-03-11T15:53:40.706Z,1.23
2023-03-11T15:56:08.274Z,1.21
2023-03-11T15:58:35.234Z,0.84
2023-03-11T16:01:02.565Z,1.20
2023-03-11T16:03:31.365Z,0.69
2023-03-11T16:05:58.090Z,1.17
2023-03-11T16:08:25.136Z,0.89
2023-03-11T16:10:51.562Z,0.86
2023-03-11T16:13:18.516Z,1.07
2023-03-11T16:15:45.873Z,0.57
2023-03-11T16:18:15.065Z,1.16
2023-03-11T16:20:41.810Z,0.42
2023-03-11T16:23:09.366Z,0.44
2023-03-11T16:25:35.989Z,1.49
2023-03-11T16:28:02.735Z,1.52
2023-03-11T16:30:29.824Z,1.34
2023-03-11T16:32:57.127Z,0.89
2023-03-11T16:35:23.889Z,0.88
2023-03-11T16:37:51.256Z,1.23
2023-03-11T16:40:18.267Z,1.15
2023-03-11T16:42:45.216Z,1.17
2023-03-11T16:45:12.174Z,1.68
2023-03-11T16:47:38.614Z,1.72
2023-03-11T16:50:06.265Z,1.32
2023-03-11T16:52:33.403Z,1.79
2023-03-11T16:54:59.989Z,1.54
2023-03-11T16:57:26.503Z,1.23
2023-03-11T16:59:54.229Z,0.52
2023-03-11T17:02:22.200Z,0.52
2023-03-11T17:04:52.168Z,0.80
2023-03-11T17:07:19.210Z,-0.01
2023-03-11T17:09:45.700Z,0.56
2023-03-11T17:12:12.485Z,0.66
2023-03-11T17:14:39.588Z,0.78
2023-03-11T17:17:06.481Z,1.00
2023-03-11T17:19:33.292Z,0.95
2023-03-11T17:22:03.158Z,1.05
2023-03-11T17:24:30.069Z,1.02
2023-03-11T17:26:57.139Z,0.72
2023-03-11T17:29:24.285Z,1.05
2023-03-11T17:31:51.585Z,0.95
2023-03-11T17:34:18.179Z,0.82
2023-03-11T17:36:47.420Z,0.20
2023-03-11T17:39:14.988Z,0.71
2023-03-11T17:41:41.865Z,0.65
2023-03-11T17:44:09.132Z,1.14
2023-03-11T17:46:35.803Z,0.40
2023-03-11T17:49:02.743Z,0.26
2023-03-11T17:51:29.565Z,-0.59
2023-03-11T17:53:56.437Z,-0.12
2023-03-11T17:56:24.229Z,0.64
2023-03-11T17:58:51.549Z,0.03
2023-03-11T18:01:18.666Z,0.49
2023-03-11T18:03:46.561Z,-0.05
2023-03-11T18:06:13.564Z,-0.00
2023-03-11T18:08:40.614Z,-0.08
2023-03-11T18:11:07.797Z,0.43
2023-03-11T18:13:34.396Z,0.18
2023-03-11T18:16:02.520Z,0.62
2023-03-11T18:18:31.909Z,0.17
2023-03-11T18:20:58.599Z,0.33
2023-03-11T18:23:28.800Z,0.60
2023-03-11T18:25:55.972Z,0.20
2023-03-11T18:28:23.232Z,-0.74
2023-03-11T18:30:50.520Z,0.36
2023-03-11T18:33:18.677Z,0.97
2023-03-11T18:35:45.881Z,0.19
2023-03-11T18:38:12.921Z,0.39
2023-03-11T18:40:39.909Z,0.68
2023-03-11T18:43:06.990Z,0.35
2023-03-11T18:45:34.122Z,0.62
2023-03-11T18:48:02.404Z,0.75
2023-03-11T18:50:33.357Z,0.90
2023-03-11T18:53:00.299Z,0.70
2023-03-11T18:55:27.627Z,0.87
2023-03-11T18:57:55.603Z,0.99
2023-03-11T19:00:23.482Z,0.76
2023-03-11T19:02:50.882Z,1.33
2023-03-11T19:05:20.821Z,0.72
2023-03-11T19:07:47.995Z,0.37
2023-03-11T19:10:15.595Z,0.66
2023-03-11T19:12:44.644Z,0.88
2023-03-11T19:15:11.806Z,0.90
2023-03-11T19:17:39.139Z,1.26
2023-03-11T19:20:09.997Z,0.04
2023-03-11T19:22:37.774Z,0.44
2023-03-11T19:25:04.988Z,0.77
2023-03-11T19:27:33.320Z,-0.05
2023-03-11T19:30:00.060Z,0.51
2023-03-11T19:32:30.173Z,0.74
2023-03-11T19:34:58.225Z,0.36
2023-03-11T19:37:25.076Z,0.82
2023-03-11T19:39:51.857Z,1.22
2023-03-11T19:42:21.478Z,-0.16
2023-03-11T19:44:49.117Z,0.29
2023-03-11T19:47:16.065Z,0.20
2023-03-11T19:49:43.205Z,-0.56
2023-03-11T19:52:10.885Z,0.19
2023-03-11T19:54:37.672Z,0.28
2023-03-11T19:57:04.724Z,0.51
2023-03-11T19:59:32.401Z,-0.07
2023-03-11T20:02:00.463Z,0.03
2023-03-11T20:04:27.377Z,0.58
2023-03-11T20:06:54.369Z,0.79
2023-03-11T20:09:20.962Z,0.63
2023-03-11T20:11:47.883Z,0.99
2023-03-11T20:14:15.837Z,0.54
2023-03-11T20:16:42.631Z,-0.61
2023-03-11T20:19:10.495Z,-0.21
2023-03-11T20:21:37.582Z,-0.02
2023-03-11T20:24:07.289Z,0.22
2023-03-11T20:26:34.365Z,-0.09
2023-03-11T20:29:02.360Z,-0.71
2023-03-11T20:31:29.533Z,-0.03
2023-03-11T20:33:56.130Z,0.62
2023-03-11T20:36:23.810Z,1.00
2023-03-11T20:38:50.877Z,0.55
2023-03-11T20:41:17.527Z,0.56
2023-03-11T20:43:44.668Z,0.32
2023-03-11T20:46:11.639Z,0.51
2023-03-11T20:48:38.814Z,0.92
2023-03-11T20:51:05.729Z,0.74
2023-03-11T20:53:32.382Z,0.54
2023-03-11T20:55:59.200Z,0.57
2023-03-11T20:58:26.160Z,-0.67
2023-03-11T21:00:52.950Z,-0.43
2023-03-11T21:03:20.037Z,-0.47
2023-03-11T21:05:46.784Z,0.10
2023-03-11T21:08:14.885Z,0.18
2023-03-11T21:10:41.925Z,-0.25
2023-03-11T21:13:09.388Z,0.36
2023-03-11T21:15:36.268Z,-0.55
2023-03-11T21:18:04.547Z,-0.61
2023-03-11T21:20:32.122Z,-0.61
2023-03-11T21:23:01.309Z,-0.45
2023-03-11T21:25:29.363Z,-0.37
2023-03-11T21:27:57.518Z,-0.70
2023-03-11T21:30:24.081Z,-0.27
2023-03-11T21:32:51.217Z,-0.02
2023-03-11T21:35:17.796Z,0.06
2023-03-11T21:37:44.401Z,-0.04
2023-03-11T21:40:11.029Z,-0.05
2023-03-11T21:42:38.316Z,-0.67
2023-03-11T21:45:04.932Z,-0.85
2023-03-11T21:47:31.491Z,-0.43
2023-03-11T21:49:58.065Z,0.40
2023-03-11T21:52:25.210Z,0.80
2023-03-11T21:54:51.842Z,0.13
2023-03-11T21:57:18.404Z,-0.07
2023-03-11T21:59:45.229Z,0.25
2023-03-11T22:02:11.652Z,0.49
2023-03-11T22:04:38.687Z,0.15
2023-03-11T22:07:06.388Z,-0.16
2023-03-11T22:09:33.011Z,-0.14
2023-03-11T22:11:59.581Z,0.04
2023-03-11T22:14:26.035Z,0.53
2023-03-11T22:16:52.824Z,-0.00
2023-03-11T22:19:20.110Z,0.32
2023-03-11T22:21:48.807Z,0.26
2023-03-11T22:24:15.575Z,0.51
2023-03-11T22:26:42.506Z,0.41
2023-03-11T22:29:09.146Z,0.62
2023-03-11T22:31:35.722Z,0.51
2023-03-11T22:34:02.374Z,0.70
2023-03-11T22:36:30.910Z,0.48
2023-03-11T22:38:57.425Z,0.07
2023-03-11T22:41:23.868Z,-0.09
2023-03-11T22:43:50.361Z,-0.37
2023-03-11T22:46:16.919Z,0.27
2023-03-11T22:48:43.687Z,-0.67
2023-03-11T22:51:10.577Z,-0.18
2023-03-11T22:53:37.079Z,-0.56
2023-03-11T22:56:03.690Z,-0.58
2023-03-11T22:58:30.268Z,-0.20
2023-03-11T23:00:58.999Z,0.10
2023-03-11T23:03:25.631Z,-0.11
2023-03-11T23:05:52.161Z,-0.31
2023-03-11T23:08:19.387Z,-0.07
2023-03-11T23:10:45.871Z,-0.27
2023-03-11T23:13:12.397Z,-0.52
2023-03-11T23:15:38.984Z,-0.47
2023-03-11T23:18:05.481Z,-0.80
2023-03-11T23:20:32.258Z,-0.99
2023-03-11T23:22:58.748Z,-0.63
2023-03-11T23:25:25.907Z,-0.22
2023-03-11T23:27:52.721Z,-0.61
2023-03-11T23:30:19.248Z,-0.44
2023-03-11T23:32:45.725Z,-0.51
2023-03-11T23:35:12.190Z,-0.32
2023-03-11T23:37:38.659Z,-0.46
2023-03-11T23:40:06.352Z,-0.37
2023-03-11T23:42:32.843Z,-0.59
2023-03-11T23:44:59.591Z,-1.03
2023-03-11T23:47:26.051Z,-0.90
2023-03-11T23:49:53.466Z,-0.93
2023-03-11T23:52:20.547Z,-1.01
2023-03-11T23:54:47.193Z,-0.71
2023-03-11T23:57:16.042Z,-0.63
2023-03-11T23:59:44.661Z,-0.24
